• Join FlightAware (Why Join?)
  • Login
  • US Flag 
06:47PM EDT


 

Airport Tracker/Info


-or-


 

Live Flight TrackerFlight Track Log ✈ EJA922 ✈ 18-Sep-2013 ✈ KBJC - KRIL

Flight Track Log - Related Links

Times and Time Zones

All times are in EDT time to prevent confusion due to time zone crossing. See the EJA922 flight status page for this flight to view local times or setup timezone preferences in your user account.

Time Position Orientation Groundspeed Altitude Reporting Facility
EDT Latitude Longitude Course Direction KTS MPH feet Rate Location/Type
07:43AM 39.8500 -105.0500 260° West 244 281 9,000  Level Denver TRACON
07:44AM 39.7833 -105.0167 159° South 259 298 10,200 1,500 Climbing Denver TRACON
07:45AM 39.7300 -105.0011 167° South 248 285 11,700 2,280 Climbing Denver Center
07:46AM 39.6722 -105.0508 214° Southwest 275 316 14,400 3,000 Climbing Denver Center
07:47AM 39.6567 -105.1631 260° West 303 349 17,700 2,760 Climbing Denver Center
07:48AM 39.8270 -105.7135 260° West  Level Estimated
07:48AM 39.6444 -105.2650 261° West 289 333 20,000  Level Denver Center
07:49AM 39.6294 -105.3875 261° West 357 411 20,000  Level Denver Center
07:50AM 39.6139 -105.5225 262° West 382 440 20,000  Level Denver Center
07:51AM 39.5961 -105.6644 261° West 402 463 20,000  Level Denver Center
07:52AM 39.5783 -105.8072 261° West 399 459 20,000  Level Denver Center
07:53AM 39.5647 -105.9283 262° West 371 427 20,000  Level Denver Center
07:54AM 39.5483 -106.0558 261° West 362 417 20,000  Level Denver Center
07:55AM 39.5325 -106.1806 261° West 359 413 20,000  Level Denver Center
07:56AM 39.5161 -106.3097 261° West 362 417 20,000  Level Denver Center
07:57AM 39.4994 -106.4356 260° West 356 410 20,000 -240 Level Denver Center
07:58AM 39.4817 -106.5725 260° West 356 410 19,600 -780 Descending Denver Center
07:59AM 39.4636 -106.7072 260° West 342 394 18,500 -1,200 Descending Denver Center
08:00AM 39.4503 -106.8106 261° West 310 357 17,300 -1,440 Descending Denver Center
08:01AM 39.4386 -106.9011 261° West 271 312 15,700 -1,620 Descending Denver Center
08:02AM 39.4708 -106.9894 295° West 260 299 14,100 -900 Descending Denver Center
08:03AM 39.5000 -107.0697 295° West 244 281 14,000 -60 Descending Denver Center
08:04AM 39.5239 -107.1397 294° West 215 247 14,000 -180 Level Denver Center
08:05AM 39.5369 -107.2042 285° West 199 229 13,700 -540 Descending Denver Center
08:06AM 39.5367 -107.2769 270° West 183 211 13,000 -900 Descending Denver Center
08:07AM 39.5336 -107.3386 266° West 179 206 12,000 -1,020 Descending Denver Center
08:08AM 39.5328 -107.3997 269° West 179 206 11,000 -1,020 Descending Denver Center